Data for 12/08/2015

Time Sea-Level Adjusted Pressure Absolute Pressure Temperature Relative Humidity Dew Point   
(mb) (inHg) (mb) (inHg) (C) (F) (%) (C) (F)
00:05 1011 29.85 840 24.81 8.6 47.5 50 -1.1 30
00:10 1011 29.85 840 24.81 8.5 47.3 51 -1.1 30.1
00:15 1011 29.85 840 24.81 8.5 47.3 52 -0.9 30.4
00:20 1011 29.85 840 24.81 8.4 47 53 -0.7 30.8
00:25 1011 29.85 840 24.81 8.3 46.9 53 -0.6 30.9
00:30 1011 29.85 840 24.81 8.3 47 54 -0.4 31.3
00:35 1011 29.85 840 24.81 8.2 46.7 56 -0.1 31.8
00:40 1011 29.85 841 24.83 8.1 46.6 56 -0 32
00:45 1012 29.88 841 24.83 8 46.5 57 0.2 32.3
00:50 1012 29.88 841 24.83 7.9 46.2 57 0 32
00:55 1012 29.88 841 24.83 7.7 45.9 57 -0.2 31.7
01:00 1012 29.88 841 24.83 7.7 45.8 57 -0.3 31.5
01:05 1012 29.88 841 24.83 7.5 45.5 58 -0.2 31.6
01:10 1012 29.88 841 24.83 7.3 45.2 58 -0.4 31.3
01:15 1012 29.88 841 24.83 7.4 45.4 57 -0.6 31
01:20 1012 29.88 841 24.83 7.3 45.1 59 -0.1 31.8
01:25 1012 29.88 841 24.83 6.7 44.1 63 0.2 32.4
01:30 1012 29.88 841 24.83 6.4 43.4 64 0.1 32.2
01:35 1012 29.88 841 24.83 6.2 43.2 65 0.2 32.3
01:40 1012 29.88 841 24.83 6 42.8 66 0.2 32.4
01:45 1012 29.88 841 24.83 5.9 42.5 67 0.2 32.4
01:50 1012 29.88 841 24.83 5.9 42.7 64 -0.3 31.5
01:55 1012 29.88 841 24.83 6.4 43.6 62 -0.3 31.5
02:00 1012 29.88 841 24.83 6.7 44 61 -0.2 31.6
02:05 1012 29.88 841 24.83 6.7 44 61 -0.2 31.6
02:10 1012 29.88 841 24.83 6.6 43.9 61 -0.4 31.3
02:15 1012 29.88 841 24.83 6.7 44.1 60 -0.6 31
02:20 1012 29.88 841 24.83 6.8 44.3 59 -0.5 31.1
02:25 1012 29.88 841 24.83 6.8 44.3 59 -0.6 30.9
02:30 1012 29.88 842 24.86 6.7 44.1 60 -0.6 30.9
02:35 1012 29.88 842 24.86 6.7 44 58 -1 30.3
02:40 1012 29.88 842 24.86 6.9 44.4 57 -1 30.2
02:45 1013 29.91 842 24.86 7 44.5 57 -0.9 30.5
02:50 1013 29.91 842 24.86 6.8 44.3 59 -0.7 30.8
02:55 1013 29.91 842 24.86 6.6 43.9 60 -0.7 30.8
03:00 1013 29.91 842 24.86 6.3 43.4 60 -0.8 30.6
03:05 1013 29.91 842 24.86 6.2 43.2 59 -1.1 30
03:10 1013 29.91 842 24.86 6.3 43.4 58 -1.2 29.8
03:15 1013 29.91 842 24.86 6.4 43.5 58 -1.2 29.9
03:20 1013 29.91 842 24.86 6.5 43.6 56 -1.7 29
03:25 1013 29.91 842 24.86 6.9 44.5 54 -1.8 28.8
03:30 1013 29.91 842 24.86 7.1 44.8 53 -1.7 29
03:35 1013 29.91 843 24.89 7.1 44.8 54 -1.5 29.3
03:40 1013 29.91 843 24.89 6.9 44.5 55 -1.6 29.1
03:45 1013 29.91 843 24.89 6.7 44.1 55 -1.7 29
03:50 1013 29.91 843 24.89 6.6 43.8 56 -1.6 29.1
03:55 1013 29.91 843 24.89 6.4 43.5 56 -1.7 29
04:00 1014 29.94 843 24.89 6.3 43.4 58 -1.3 29.7
04:05 1014 29.94 843 24.89 6.3 43.4 56 -1.8 28.8
04:10 1014 29.94 843 24.89 6.4 43.4 56 -1.7 28.9
04:15 1014 29.94 843 24.89 6.3 43.4 55 -2.2 28.1
04:20 1014 29.94 843 24.89 6.5 43.7 54 -2.2 28
04:25 1014 29.94 843 24.89 6.8 44.2 52 -2.4 27.7
04:30 1014 29.94 843 24.89 6.9 44.4 52 -2.3 27.8
04:35 1014 29.94 843 24.89 6.8 44.3 51 -2.6 27.2
04:40 1014 29.94 843 24.89 7.1 44.7 50 -2.5 27.4
04:45 1014 29.94 844 24.92 7.1 44.7 50 -2.6 27.3
04:50 1014 29.94 844 24.92 7.1 44.8 50 -2.7 27.1
04:55 1014 29.94 844 24.92 7 44.6 51 -2.4 27.6
05:00 1015 29.97 844 24.92 6.6 44 53 -2.3 27.8
05:05 1015 29.97 844 24.92 6.4 43.6 52 -2.6 27.3
05:10 1015 29.97 844 24.92 6.4 43.5 52 -2.8 27
05:15 1015 29.97 844 24.92 6.5 43.8 51 -2.9 26.8
05:20 1015 29.97 844 24.92 6.6 43.9 50 -3 26.7
05:25 1015 29.97 844 24.92 6.8 44.3 49 -3.2 26.2
05:30 1015 29.97 844 24.92 7.2 44.9 48 -3.1 26.5
05:35 1015 29.97 844 24.92 7.3 45.2 48 -2.9 26.9
05:40 1015 29.97 844 24.92 7.3 45.1 49 -2.8 26.9
05:45 1015 29.97 844 24.92 7.3 45.1 48 -3 26.5
05:50 1015 29.97 844 24.92 7.3 45.2 48 -2.9 26.7
05:55 1015 29.97 844 24.92 7.4 45.3 47 -3 26.6
06:00 1015 29.97 844 24.92 7.4 45.3 48 -3 26.6
06:05 1015 29.97 844 24.92 7.3 45.2 48 -2.9 26.9
06:10 1015 29.97 844 24.92 7.2 45 48 -2.9 26.7
06:15 1015 29.97 844 24.92 7.2 44.9 49 -2.8 26.9
06:20 1015 29.97 844 24.92 7.1 44.7 49 -2.8 26.9
06:25 1015 29.97 844 24.92 7 44.5 49 -2.9 26.7
06:30 1015 29.97 844 24.92 7 44.5 49 -2.9 26.8
06:35 1015 29.97 844 24.92 6.9 44.3 49 -3 26.5
06:40 1015 29.97 844 24.92 6.8 44.2 50 -3 26.6
06:45 1015 29.97 845 24.95 6.7 44.1 50 -2.9 26.7
06:50 1015 29.97 844 24.92 6.6 43.9 51 -2.7 27.1
06:55 1015 29.97 844 24.92 6.5 43.6 51 -3 26.6
07:00 1015 29.97 844 24.92 6.4 43.6 51 -2.9 26.8
07:05 1015 29.97 844 24.92 6.2 43.2 52 -2.9 26.8
07:10 1015 29.97 844 24.92 6.1 43 53 -2.8 27
07:15 1015 29.97 844 24.92 6 42.9 53 -2.8 27
07:20 1015 29.97 845 24.95 5.9 42.7 53 -2.8 26.9
07:25 1015 29.97 845 24.95 5.9 42.6 53 -2.9 26.7
07:30 1015 29.97 844 24.92 6 42.8 53 -2.8 26.9
07:35 1015 29.97 845 24.95 6 42.8 53 -2.8 27
07:40 1016 30 845 24.95 5.9 42.7 53 -2.8 27
07:45 1016 30 845 24.95 6.1 42.9 53 -2.8 27
07:50 1016 30 845 24.95 6 42.7 54 -2.7 27.1
07:55 1016 30 845 24.95 5.9 42.7 53 -2.8 27
08:00 1016 30 845 24.95 5.9 42.7 54 -2.7 27.2
08:05 1016 30 845 24.95 5.9 42.7 53 -2.8 27
08:10 1016 30 845 24.95 6 42.8 54 -2.6 27.3
08:15 1016 30 845 24.95 5.7 42.2 56 -2.3 27.8
08:20 1016 30 845 24.95 5.4 41.7 55 -2.8 27
08:25 1016 30 845 24.95 5.6 42.1 55 -2.8 27
08:30 1016 30 845 24.95 6 42.8 53 -2.9 26.8
08:35 1016 30 845 24.95 6.3 43.3 53 -2.6 27.3
08:40 1016 30 845 24.95 6.2 43.2 53 -2.6 27.4
08:45 1016 30 845 24.95 6.3 43.3 52 -2.8 26.9
08:50 1016 30 845 24.95 6.7 44.1 52 -2.5 27.5
08:55 1016 30 845 24.95 6.8 44.2 52 -2.3 27.9
09:00 1016 30 845 24.95 6.8 44.3 52 -2.3 27.9
09:05 1016 30 845 24.95 6.9 44.3 53 -2.1 28.2
09:10 1016 30 845 24.95 6.8 44.3 53 -2.1 28.3
09:15 1016 30 845 24.95 6.9 44.4 53 -2 28.4
09:20 1016 30 845 24.95 7 44.6 53 -2 28.4
09:25 1016 30 845 24.95 7.1 44.8 53 -1.8 28.8
09:30 1016 30 845 24.95 7.1 44.8 54 -1.6 29.1
09:35 1016 30 845 24.95 7 44.6 54 -1.6 29.2
09:40 1016 30 845 24.95 7.2 44.9 54 -1.5 29.2
09:45 1016 30 845 24.95 7.2 45 53 -1.6 29.1
09:50 1016 30 845 24.95 7.4 45.4 53 -1.5 29.3
09:55 1016 30 845 24.95 7.4 45.4 53 -1.4 29.5
10:00 1016 30 845 24.95 7.3 45.1 53 -1.6 29.1
10:05 1016 30 846 24.98 7.2 44.9 53 -1.7 29
10:10 1016 30 846 24.98 7 44.6 55 -1.5 29.4
10:15 1016 30 846 24.98 7.1 44.8 55 -1.4 29.5
10:20 1016 30 846 24.98 7.5 45.6 52 -1.6 29.1
10:25 1016 30 846 24.98 8 46.3 51 -1.5 29.4
10:30 1017 30.03 846 24.98 8.2 46.8 51 -1.3 29.7
10:35 1017 30.03 846 24.98 8.4 47.1 51 -1.2 29.9
10:40 1017 30.03 846 24.98 8.3 46.9 51 -1.2 29.9
10:45 1017 30.03 846 24.98 8.4 47 50 -1.5 29.3
10:50 1017 30.03 846 24.98 8.6 47.5 47 -1.9 28.6
10:55 1017 30.03 846 24.98 9 48.3 46 -1.8 28.7
11:00 1017 30.03 846 24.98 9.1 48.4 47 -1.6 29.1
11:05 1017 30.03 846 24.98 9.1 48.3 47 -1.6 29.1
11:10 1017 30.03 846 24.98 9.1 48.3 48 -1.3 29.7
11:15 1016 30 846 24.98 9.1 48.3 48 -1.5 29.4
11:20 1016 30 846 24.98 9 48.2 48 -1.5 29.3
11:25 1016 30 846 24.98 9 48.2 47 -1.7 28.9
11:30 1016 30 846 24.98 9.1 48.4 46 -1.8 28.7
11:35 1016 30 846 24.98 9.1 48.4 46 -1.8 28.8
11:40 1016 30 846 24.98 9.1 48.4 46 -2 28.4
11:45 1017 30.03 846 24.98 9.1 48.4 47 -1.7 28.9
11:50 1017 30.03 846 24.98 9.2 48.5 45 -2 28.5
11:55 1017 30.03 846 24.98 9.2 48.6 46 -1.9 28.7
12:00 1016 30 846 24.98 9.3 48.8 44 -2.1 28.2
12:05 1016 30 846 24.98 9.4 48.9 45 -2 28.4
12:10 1016 30 846 24.98 9.4 48.9 45 -1.8 28.8
12:15 1016 30 846 24.98 9.4 49 45 -2 28.4
12:20 1016 30 846 24.98 9.5 49 45 -2 28.5
12:25 1016 30 846 24.98 9.5 49.1 44 -2.1 28.3
12:30 1016 30 846 24.98 9.5 49.1 44 -2.2 28
12:35 1016 30 845 24.95 9.5 49.2 43 -2.2 28
12:40 1016 30 845 24.95 9.5 49.2 43 -2.5 27.6
12:45 1016 30 845 24.95 9.7 49.4 42 -2.6 27.3
12:50 1016 30 845 24.95 9.8 49.6 40 -3 26.6
12:55 1016 30 845 24.95 9.8 49.6 41 -2.9 26.8
13:00 1016 30 845 24.95 9.8 49.6 40 -3 26.6
13:05 1016 30 845 24.95 9.9 49.8 40 -2.9 26.7
13:10 1016 30 845 24.95 10 49.9 40 -3 26.7
13:15 1016 30 845 24.95 10 50.1 40 -3 26.5
13:20 1016 30 845 24.95 10 50 41 -2.7 27.2
13:25 1016 30 845 24.95 10 50 41 -2.6 27.4
13:30 1016 30 845 24.95 10 50 41 -2.6 27.3
13:35 1016 30 845 24.95 10.1 50.1 41 -2.4 27.7
13:40 1016 30 845 24.95 10.3 50.5 37 -3.7 25.3
13:45 1016 30 845 24.95 10.8 51.4 36 -3.7 25.3
13:50 1016 30 845 24.95 10.9 51.6 36 -3.6 25.5
13:55 1016 30 845 24.95 10.9 51.5 36 -3.7 25.4
14:00 1016 30 845 24.95 10.9 51.6 36 -3.4 25.9
14:05 1015 29.97 845 24.95 10.8 51.5 38 -2.9 26.7
14:10 1015 29.97 845 24.95 10.8 51.4 38 -3 26.6
14:15 1015 29.97 845 24.95 10.7 51.3 37 -3.2 26.2
14:20 1015 29.97 844 24.92 10.8 51.4 38 -2.8 26.9
14:25 1015 29.97 844 24.92 10.7 51.3 39 -2.7 27.1
14:30 1015 29.97 844 24.92 10.7 51.2 38 -3 26.6
14:35 1015 29.97 844 24.92 10.7 51.2 38 -2.9 26.9
14:40 1015 29.97 844 24.92 10.6 51.1 39 -2.6 27.4
14:45 1015 29.97 844 24.92 10.6 51.2 41 -2.1 28.2
14:50 1015 29.97 844 24.92 10.5 50.9 41 -2.2 28
14:55 1015 29.97 844 24.92 10.7 51.2 40 -2.3 27.9
15:00 1015 29.97 844 24.92 11 51.9 39 -2.3 27.8
15:05 1015 29.97 844 24.92 11.3 52.3 39 -2.2 28
15:10 1015 29.97 844 24.92 11.2 52.2 40 -2 28.4
15:15 1015 29.97 844 24.92 11.1 52 40 -1.9 28.7
15:20 1015 29.97 844 24.92 11.2 52.2 39 -2.2 28.1
15:25 1015 29.97 844 24.92 11.3 52.3 39 -2.1 28.2
15:30 1014 29.94 843 24.89 11.3 52.3 39 -2.1 28.2
15:35 1014 29.94 843 24.89 11.2 52.2 38 -2.4 27.7
15:40 1014 29.94 843 24.89 11.3 52.4 39 -2.2 28
15:45 1014 29.94 843 24.89 11.4 52.4 38 -2.4 27.7
15:50 1014 29.94 843 24.89 11.4 52.5 39 -2.1 28.2
15:55 1014 29.94 843 24.89 11.4 52.6 38 -2.4 27.6
16:00 1014 29.94 843 24.89 11.6 52.9 38 -2.3 27.9
16:05 1014 29.94 843 24.89 11.7 53.1 37 -2.4 27.7
16:10 1014 29.94 843 24.89 11.8 53.3 38 -2 28.4
16:15 1014 29.94 843 24.89 11.8 53.2 37 -2.3 27.9
16:20 1014 29.94 843 24.89 11.8 53.3 36 -2.7 27.1
16:25 1013 29.91 843 24.89 11.8 53.3 38 -2.1 28.2
16:30 1013 29.91 843 24.89 11.6 53 38 -2 28.3
16:35 1013 29.91 842 24.86 11.5 52.7 39 -1.9 28.6
16:40 1013 29.91 842 24.86 11.3 52.3 40 -1.9 28.6
16:45 1013 29.91 842 24.86 11.2 52.1 39 -2.1 28.1
16:50 1013 29.91 843 24.89 11.4 52.4 40 -1.8 28.7
16:55 1013 29.91 843 24.89 11.3 52.4 40 -1.7 29
17:00 1013 29.91 843 24.89 11.2 52.1 41 -1.7 29
17:05 1013 29.91 843 24.89 11.2 52.1 41 -1.6 29.1
17:10 1013 29.91 843 24.89 11.1 52 41 -1.7 28.9
17:15 1013 29.91 843 24.89 11 51.9 41 -1.6 29.2
17:20 1013 29.91 843 24.89 11 51.8 41 -1.6 29.2
17:25 1014 29.94 843 24.89 10.9 51.6 42 -1.5 29.4
17:30 1014 29.94 843 24.89 10.8 51.5 42 -1.4 29.4
17:35 1014 29.94 843 24.89 11 51.7 42 -1.5 29.3
17:40 1014 29.94 843 24.89 11 51.7 42 -1.3 29.7
17:45 1014 29.94 843 24.89 10.8 51.4 43 -1.2 29.8
17:50 1014 29.94 843 24.89 10.7 51.3 43 -1.3 29.6
17:55 1014 29.94 843 24.89 10.6 51.2 44 -1.2 29.9
18:00 1014 29.94 843 24.89 10.5 50.9 43 -1.5 29.3
18:05 1014 29.94 843 24.89 10.5 51 43 -1.5 29.3
18:10 1014 29.94 843 24.89 10.7 51.2 43 -1.5 29.4
18:15 1014 29.94 843 24.89 10.7 51.2 42 -1.6 29.2
18:20 1014 29.94 843 24.89 10.8 51.5 42 -1.6 29.2
18:25 1013 29.91 843 24.89 10.7 51.3 42 -1.7 29
18:30 1013 29.91 843 24.89 10.8 51.5 41 -1.8 28.8
18:35 1013 29.91 842 24.86 10.9 51.6 41 -1.7 29
18:40 1013 29.91 842 24.86 10.8 51.4 42 -1.5 29.2
18:45 1013 29.91 842 24.86 10.7 51.2 42 -1.6 29.2
18:50 1013 29.91 842 24.86 10.6 51 43 -1.4 29.5
18:55 1013 29.91 842 24.86 10.5 50.8 43 -1.5 29.3
19:00 1013 29.91 842 24.86 10.3 50.5 44 -1.4 29.4
19:05 1013 29.91 842 24.86 10.2 50.3 43 -1.6 29
19:10 1013 29.91 842 24.86 10.2 50.3 43 -1.7 29
19:15 1013 29.91 842 24.86 10.2 50.3 43 -1.7 29
19:20 1013 29.91 842 24.86 10.1 50.3 43 -1.8 28.8
19:25 1013 29.91 842 24.86 10.1 50.2 43 -1.8 28.7
19:30 1013 29.91 842 24.86 10.2 50.3 43 -1.8 28.8
19:35 1013 29.91 842 24.86 10.2 50.4 42 -2.2 28.1
19:40 1013 29.91 842 24.86 10.5 50.8 41 -2.1 28.2
19:45 1012 29.88 842 24.86 10.6 51 41 -2.2 28
19:50 1012 29.88 842 24.86 10.7 51.2 41 -2 28.4
19:55 1013 29.91 842 24.86 10.6 51.1 42 -1.9 28.6
20:00 1013 29.91 842 24.86 10.6 51 42 -1.8 28.7
20:05 1013 29.91 842 24.86 10.4 50.7 42 -1.8 28.7
20:10 1013 29.91 842 24.86 10.2 50.3 43 -1.8 28.8
20:15 1013 29.91 842 24.86 10.1 50.2 43 -2 28.4
20:20 1013 29.91 842 24.86 10.2 50.4 42 -2.2 28.1
20:25 1013 29.91 842 24.86 10.5 51 39 -2.7 27.1
20:30 1013 29.91 842 24.86 10.9 51.7 39 -2.5 27.4
20:35 1013 29.91 842 24.86 10.9 51.7 40 -2.1 28.2
20:40 1013 29.91 842 24.86 10.6 51.2 41 -2 28.5
20:45 1013 29.91 842 24.86 10.7 51.3 40 -2.3 27.9
20:50 1013 29.91 842 24.86 11 51.8 39 -2.5 27.6
20:55 1013 29.91 842 24.86 11.2 52.2 38 -2.4 27.7
21:00 1013 29.91 842 24.86 11.2 52.2 37 -2.8 26.9
21:05 1013 29.91 842 24.86 11.7 53 36 -2.9 26.8
21:10 1013 29.91 842 24.86 11.6 53 38 -2.3 27.8
21:15 1013 29.91 842 24.86 11.4 52.5 37 -2.9 26.8
21:20 1012 29.88 842 24.86 11.7 53 35 -3.1 26.5
21:25 1012 29.88 842 24.86 11.8 53.2 36 -2.9 26.9
21:30 1012 29.88 842 24.86 11.6 53 37 -2.6 27.3
21:35 1012 29.88 842 24.86 11.5 52.7 36 -3 26.5
21:40 1012 29.88 842 24.86 11.5 52.8 37 -2.5 27.5
21:45 1012 29.88 842 24.86 11.3 52.3 38 -2.6 27.3
21:50 1012 29.88 842 24.86 11.2 52.1 37 -2.8 27
21:55 1012 29.88 842 24.86 11 51.8 39 -2.5 27.5
22:00 1012 29.88 842 24.86 10.8 51.4 39 -2.4 27.6
22:05 1012 29.88 842 24.86 10.7 51.2 38 -3 26.7
22:10 1012 29.88 841 24.83 10.8 51.5 38 -2.8 26.9
22:15 1012 29.88 841 24.83 10.7 51.3 39 -2.6 27.4
22:20 1012 29.88 841 24.83 10.6 51.1 39 -2.8 27
22:25 1012 29.88 841 24.83 10.8 51.4 38 -2.9 26.8
22:30 1012 29.88 841 24.83 10.9 51.5 38 -2.9 26.8
22:35 1012 29.88 841 24.83 10.9 51.6 38 -2.8 27
22:40 1012 29.88 841 24.83 11.1 52 36 -3.4 25.9
22:45 1012 29.88 841 24.83 11 51.8 37 -3 26.7
22:50 1012 29.88 841 24.83 10.9 51.7 36 -3.5 25.7
22:55 1012 29.88 841 24.83 11.2 52.1 36 -3.2 26.3
23:00 1012 29.88 841 24.83 11 51.7 37 -3 26.6
23:05 1012 29.88 841 24.83 10.7 51.2 38 -2.9 26.8
23:10 1012 29.88 841 24.83 10.6 51 38 -3.2 26.3
23:15 1011 29.85 841 24.83 10.7 51.2 38 -3 26.6
23:20 1011 29.85 841 24.83 10.7 51.2 37 -3.4 25.8
23:25 1011 29.85 841 24.83 11 51.8 36 -3.4 25.9
23:30 1011 29.85 840 24.81 11 51.8 36 -3.4 25.8
23:35 1011 29.85 840 24.81 11 51.8 36 -3.3 26.1
23:40 1011 29.85 840 24.81 11 51.8 36 -3.3 26
23:45 1011 29.85 841 24.83 10.9 51.6 37 -3.3 26.1
23:50 1011 29.85 840 24.81 10.7 51.2 36 -3.7 25.3
23:55 1011 29.85 841 24.83 10.8 51.5 37 -3.4 25.9
24:00 1011 29.85 841 24.83 10.5 50.9 38 -3.1 26.4